sensor_id;sensor_type;location;lat;lon;timestamp;pressure;altitude;pressure_sealevel;temperature;humidity
69570;BME280;56781;42.292;23.146;2023-06-22T00:00:12;95922.69;;;15.26;100.00
69570;BME280;56781;42.292;23.146;2023-06-22T00:02:39;95956.34;;;15.20;100.00
69570;BME280;56781;42.292;23.146;2023-06-22T00:05:06;95960.94;;;15.20;100.00
69570;BME280;56781;42.292;23.146;2023-06-22T00:07:34;95950.31;;;14.97;100.00
69570;BME280;56781;42.292;23.146;2023-06-22T00:10:01;95937.00;;;15.10;100.00
69570;BME280;56781;42.292;23.146;2023-06-22T00:12:28;95950.63;;;15.13;100.00
69570;BME280;56781;42.292;23.146;2023-06-22T00:14:55;95957.94;;;15.21;100.00
69570;BME280;56781;42.292;23.146;2023-06-22T00:17:22;95939.38;;;14.94;100.00
69570;BME280;56781;42.292;23.146;2023-06-22T00:19:49;95957.63;;;14.88;100.00
69570;BME280;56781;42.292;23.146;2023-06-22T00:22:20;95954.75;;;14.93;100.00
69570;BME280;56781;42.292;23.146;2023-06-22T00:24:56;95946.50;;;14.81;100.00
69570;BME280;56781;42.292;23.146;2023-06-22T00:27:23;95937.94;;;14.61;100.00
69570;BME280;56781;42.292;23.146;2023-06-22T00:29:50;95923.72;;;14.38;100.00
69570;BME280;56781;42.292;23.146;2023-06-22T00:32:18;95916.28;;;14.27;100.00
69570;BME280;56781;42.292;23.146;2023-06-22T00:34:45;95926.41;;;14.21;100.00
69570;BME280;56781;42.292;23.146;2023-06-22T00:37:13;95935.75;;;14.24;100.00
69570;BME280;56781;42.292;23.146;2023-06-22T00:39:40;95936.81;;;14.14;100.00
69570;BME280;56781;42.292;23.146;2023-06-22T00:42:07;95933.19;;;14.18;100.00
69570;BME280;56781;42.292;23.146;2023-06-22T00:44:37;95941.28;;;14.18;100.00
69570;BME280;56781;42.292;23.146;2023-06-22T00:47:05;95928.78;;;14.23;100.00
69570;BME280;56781;42.292;23.146;2023-06-22T00:49:33;95927.13;;;14.53;100.00
69570;BME280;56781;42.292;23.146;2023-06-22T00:52:00;95917.16;;;14.71;100.00
69570;BME280;56781;42.292;23.146;2023-06-22T00:54:28;95915.44;;;14.75;100.00
69570;BME280;56781;42.292;23.146;2023-06-22T00:56:55;95905.59;;;14.79;100.00
69570;BME280;56781;42.292;23.146;2023-06-22T00:59:24;95906.06;;;14.72;100.00
69570;BME280;56781;42.292;23.146;2023-06-22T01:01:53;95915.75;;;14.82;100.00
69570;BME280;56781;42.292;23.146;2023-06-22T01:04:23;95918.91;;;14.84;100.00
69570;BME280;56781;42.292;23.146;2023-06-22T01:06:56;95925.41;;;14.92;100.00
69570;BME280;56781;42.292;23.146;2023-06-22T01:09:32;95920.66;;;14.89;100.00
69570;BME280;56781;42.292;23.146;2023-06-22T01:12:06;95900.03;;;14.93;100.00
69570;BME280;56781;42.292;23.146;2023-06-22T01:17:08;95901.63;;;15.11;100.00
69570;BME280;56781;42.292;23.146;2023-06-22T01:19:49;95901.44;;;15.25;100.00
69570;BME280;56781;42.292;23.146;2023-06-22T01:22:30;95918.06;;;15.53;100.00
69570;BME280;56781;42.292;23.146;2023-06-22T01:25:10;95902.97;;;15.61;100.00
69570;BME280;56781;42.292;23.146;2023-06-22T01:30:29;95906.47;;;15.44;100.00
69570;BME280;56781;42.292;23.146;2023-06-22T01:33:00;95904.59;;;15.27;100.00
69570;BME280;56781;42.292;23.146;2023-06-22T01:35:30;95935.34;;;15.52;100.00
69570;BME280;56781;42.292;23.146;2023-06-22T01:37:58;95927.59;;;15.42;100.00
69570;BME280;56781;42.292;23.146;2023-06-22T01:40:25;95918.84;;;15.36;100.00
69570;BME280;56781;42.292;23.146;2023-06-22T01:42:54;95934.72;;;15.46;100.00
69570;BME280;56781;42.292;23.146;2023-06-22T01:45:21;95924.41;;;15.48;100.00
69570;BME280;56781;42.292;23.146;2023-06-22T01:47:48;95918.06;;;15.36;100.00
69570;BME280;56781;42.292;23.146;2023-06-22T01:50:16;95920.16;;;15.30;100.00
69570;BME280;56781;42.292;23.146;2023-06-22T01:52:43;95916.84;;;15.16;100.00
69570;BME280;56781;42.292;23.146;2023-06-22T01:55:11;95934.16;;;15.15;100.00
69570;BME280;56781;42.292;23.146;2023-06-22T01:57:39;95944.75;;;15.20;100.00
69570;BME280;56781;42.292;23.146;2023-06-22T02:00:20;95939.69;;;15.10;100.00
69570;BME280;56781;42.292;23.146;2023-06-22T02:03:01;95946.34;;;15.21;100.00
69570;BME280;56781;42.292;23.146;2023-06-22T02:05:56;95935.75;;;14.98;100.00
69570;BME280;56781;42.292;23.146;2023-06-22T02:08:26;95958.56;;;14.83;100.00
69570;BME280;56781;42.292;23.146;2023-06-22T02:10:55;95950.09;;;14.50;100.00
69570;BME280;56781;42.292;23.146;2023-06-22T02:13:25;95960.63;;;14.21;100.00
69570;BME280;56781;42.292;23.146;2023-06-22T02:15:52;95948.34;;;14.06;100.00
69570;BME280;56781;42.292;23.146;2023-06-22T02:18:20;95933.91;;;13.93;100.00
69570;BME280;56781;42.292;23.146;2023-06-22T02:20:47;95973.72;;;14.13;100.00
69570;BME280;56781;42.292;23.146;2023-06-22T02:23:15;95966.22;;;13.93;100.00
69570;BME280;56781;42.292;23.146;2023-06-22T02:25:42;95953.06;;;13.91;100.00
69570;BME280;56781;42.292;23.146;2023-06-22T02:28:11;95972.16;;;13.81;100.00
69570;BME280;56781;42.292;23.146;2023-06-22T02:30:38;95955.53;;;13.48;100.00
69570;BME280;56781;42.292;23.146;2023-06-22T02:33:05;95952.84;;;13.48;100.00
69570;BME280;56781;42.292;23.146;2023-06-22T02:35:33;95956.72;;;13.33;100.00
69570;BME280;56781;42.292;23.146;2023-06-22T02:38:03;95965.25;;;13.35;100.00
69570;BME280;56781;42.292;23.146;2023-06-22T02:40:31;95971.34;;;13.27;100.00
69570;BME280;56781;42.292;23.146;2023-06-22T02:42:59;95918.34;;;12.82;100.00
69570;BME280;56781;42.292;23.146;2023-06-22T02:45:29;95940.47;;;13.02;100.00
69570;BME280;56781;42.292;23.146;2023-06-22T02:47:56;95943.41;;;13.14;100.00
69570;BME280;56781;42.292;23.146;2023-06-22T02:50:24;95954.44;;;13.26;100.00
69570;BME280;56781;42.292;23.146;2023-06-22T02:52:52;95972.97;;;13.28;100.00
69570;BME280;56781;42.292;23.146;2023-06-22T02:55:19;95953.19;;;13.10;100.00
69570;BME280;56781;42.292;23.146;2023-06-22T02:57:46;95947.50;;;13.12;100.00
69570;BME280;56781;42.292;23.146;2023-06-22T03:00:14;95963.28;;;13.27;100.00
69570;BME280;56781;42.292;23.146;2023-06-22T03:02:46;95975.13;;;13.48;100.00
69570;BME280;56781;42.292;23.146;2023-06-22T03:05:14;95966.19;;;13.62;100.00
69570;BME280;56781;42.292;23.146;2023-06-22T03:07:45;95970.34;;;13.68;100.00
69570;BME280;56781;42.292;23.146;2023-06-22T03:10:13;95968.34;;;13.73;100.00
69570;BME280;56781;42.292;23.146;2023-06-22T03:12:42;95974.59;;;13.60;100.00
69570;BME280;56781;42.292;23.146;2023-06-22T03:15:11;95967.28;;;13.52;100.00
69570;BME280;56781;42.292;23.146;2023-06-22T03:17:39;95977.41;;;13.55;100.00
69570;BME280;56781;42.292;23.146;2023-06-22T03:20:07;95966.66;;;13.55;100.00
69570;BME280;56781;42.292;23.146;2023-06-22T03:22:40;95963.41;;;13.44;100.00
69570;BME280;56781;42.292;23.146;2023-06-22T03:25:08;95973.56;;;13.47;100.00
69570;BME280;56781;42.292;23.146;2023-06-22T03:27:42;95957.00;;;13.32;100.00
69570;BME280;56781;42.292;23.146;2023-06-22T03:30:11;95970.94;;;13.34;100.00
69570;BME280;56781;42.292;23.146;2023-06-22T03:32:38;95991.78;;;13.50;100.00
69570;BME280;56781;42.292;23.146;2023-06-22T03:35:06;95989.75;;;13.56;100.00
69570;BME280;56781;42.292;23.146;2023-06-22T03:37:34;95999.66;;;13.69;100.00
69570;BME280;56781;42.292;23.146;2023-06-22T03:40:01;95975.56;;;13.64;100.00
69570;BME280;56781;42.292;23.146;2023-06-22T03:42:28;96005.09;;;13.87;100.00
69570;BME280;56781;42.292;23.146;2023-06-22T03:44:55;96007.25;;;13.99;100.00
69570;BME280;56781;42.292;23.146;2023-06-22T03:47:22;96015.97;;;14.04;100.00
69570;BME280;56781;42.292;23.146;2023-06-22T03:49:50;96009.72;;;14.17;100.00
69570;BME280;56781;42.292;23.146;2023-06-22T03:52:22;96006.75;;;14.28;100.00
69570;BME280;56781;42.292;23.146;2023-06-22T03:54:49;96018.69;;;14.44;100.00
69570;BME280;56781;42.292;23.146;2023-06-22T03:57:16;96020.97;;;14.59;100.00
69570;BME280;56781;42.292;23.146;2023-06-22T03:59:43;96010.03;;;14.65;100.00
69570;BME280;56781;42.292;23.146;2023-06-22T04:02:11;96028.66;;;14.92;100.00
69570;BME280;56781;42.292;23.146;2023-06-22T04:04:38;96024.88;;;15.11;100.00
69570;BME280;56781;42.292;23.146;2023-06-22T04:07:06;96014.22;;;15.05;100.00
69570;BME280;56781;42.292;23.146;2023-06-22T04:09:34;96038.19;;;15.33;100.00
69570;BME280;56781;42.292;23.146;2023-06-22T04:12:01;96042.16;;;15.36;100.00
69570;BME280;56781;42.292;23.146;2023-06-22T04:14:29;96022.81;;;15.25;100.00
69570;BME280;56781;42.292;23.146;2023-06-22T04:16:57;96036.78;;;15.36;100.00
69570;BME280;56781;42.292;23.146;2023-06-22T04:19:24;96008.84;;;15.14;100.00
69570;BME280;56781;42.292;23.146;2023-06-22T04:21:52;96016.78;;;15.11;100.00
69570;BME280;56781;42.292;23.146;2023-06-22T04:24:19;96020.75;;;15.13;100.00
69570;BME280;56781;42.292;23.146;2023-06-22T04:26:46;96029.31;;;15.33;100.00
69570;BME280;56781;42.292;23.146;2023-06-22T04:29:14;96032.66;;;15.56;100.00
69570;BME280;56781;42.292;23.146;2023-06-22T04:31:41;96020.25;;;15.63;100.00
69570;BME280;56781;42.292;23.146;2023-06-22T04:34:08;96013.91;;;15.68;100.00
69570;BME280;56781;42.292;23.146;2023-06-22T04:36:37;96029.13;;;15.90;100.00
69570;BME280;56781;42.292;23.146;2023-06-22T04:39:06;96032.44;;;15.95;100.00
69570;BME280;56781;42.292;23.146;2023-06-22T04:41:33;96029.25;;;16.11;100.00
69570;BME280;56781;42.292;23.146;2023-06-22T04:44:12;96010.50;;;16.06;100.00
69570;BME280;56781;42.292;23.146;2023-06-22T04:46:40;96034.78;;;16.23;100.00
69570;BME280;56781;42.292;23.146;2023-06-22T04:49:08;96037.56;;;16.35;100.00
69570;BME280;56781;42.292;23.146;2023-06-22T04:51:40;96011.94;;;16.42;100.00
69570;BME280;56781;42.292;23.146;2023-06-22T04:54:09;96031.69;;;16.80;100.00
69570;BME280;56781;42.292;23.146;2023-06-22T04:56:36;96035.75;;;17.16;100.00
69570;BME280;56781;42.292;23.146;2023-06-22T04:59:04;96023.91;;;17.42;100.00
69570;BME280;56781;42.292;23.146;2023-06-22T05:01:31;96037.16;;;17.77;100.00
69570;BME280;56781;42.292;23.146;2023-06-22T05:03:58;96008.56;;;17.88;100.00
69570;BME280;56781;42.292;23.146;2023-06-22T05:06:28;96016.97;;;18.20;100.00
69570;BME280;56781;42.292;23.146;2023-06-22T05:08:56;96010.59;;;18.49;100.00
69570;BME280;56781;42.292;23.146;2023-06-22T05:11:27;96015.22;;;18.85;100.00
69570;BME280;56781;42.292;23.146;2023-06-22T05:13:54;96032.78;;;19.28;100.00
69570;BME280;56781;42.292;23.146;2023-06-22T05:16:22;96045.16;;;19.54;100.00
69570;BME280;56781;42.292;23.146;2023-06-22T05:18:54;96033.03;;;19.91;100.00
69570;BME280;56781;42.292;23.146;2023-06-22T05:21:23;96035.00;;;20.07;98.73
69570;BME280;56781;42.292;23.146;2023-06-22T05:23:51;96028.91;;;20.42;99.18
69570;BME280;56781;42.292;23.146;2023-06-22T05:26:19;96017.84;;;20.34;98.79
69570;BME280;56781;42.292;23.146;2023-06-22T05:28:47;96042.09;;;20.71;96.71
69570;BME280;56781;42.292;23.146;2023-06-22T05:31:15;96008.91;;;20.50;99.14
69570;BME280;56781;42.292;23.146;2023-06-22T05:33:43;96002.94;;;20.60;96.80
69570;BME280;56781;42.292;23.146;2023-06-22T05:36:11;96018.16;;;20.96;94.14
69570;BME280;56781;42.292;23.146;2023-06-22T05:38:39;96011.75;;;21.40;90.01
69570;BME280;56781;42.292;23.146;2023-06-22T05:41:07;96019.91;;;21.59;90.77
69570;BME280;56781;42.292;23.146;2023-06-22T05:43:34;96010.75;;;21.67;89.64
69570;BME280;56781;42.292;23.146;2023-06-22T05:46:01;96000.41;;;21.96;88.68
69570;BME280;56781;42.292;23.146;2023-06-22T05:48:29;96030.22;;;22.08;87.64
69570;BME280;56781;42.292;23.146;2023-06-22T05:50:56;96015.13;;;22.34;88.15
69570;BME280;56781;42.292;23.146;2023-06-22T05:53:24;96019.47;;;22.62;87.50
69570;BME280;56781;42.292;23.146;2023-06-22T05:55:51;96017.91;;;22.87;85.42
69570;BME280;56781;42.292;23.146;2023-06-22T05:58:18;96013.88;;;23.04;84.64
69570;BME280;56781;42.292;23.146;2023-06-22T06:00:45;96026.28;;;23.55;82.95
69570;BME280;56781;42.292;23.146;2023-06-22T06:03:13;96023.50;;;23.21;85.09
69570;BME280;56781;42.292;23.146;2023-06-22T06:05:44;96027.03;;;23.52;83.74
69570;BME280;56781;42.292;23.146;2023-06-22T06:08:12;96019.91;;;24.11;79.98
69570;BME280;56781;42.292;23.146;2023-06-22T06:10:39;96023.47;;;24.15;81.12
69570;BME280;56781;42.292;23.146;2023-06-22T06:13:06;96025.53;;;24.25;80.38
69570;BME280;56781;42.292;23.146;2023-06-22T06:15:34;96021.16;;;24.58;78.29
69570;BME280;56781;42.292;23.146;2023-06-22T06:18:01;96032.19;;;24.69;78.12
69570;BME280;56781;42.292;23.146;2023-06-22T06:20:32;96021.97;;;25.14;76.53
69570;BME280;56781;42.292;23.146;2023-06-22T06:22:59;96024.09;;;25.42;75.48
69570;BME280;56781;42.292;23.146;2023-06-22T06:25:26;96023.34;;;25.49;73.88
69570;BME280;56781;42.292;23.146;2023-06-22T06:27:54;96013.81;;;26.16;73.21
69570;BME280;56781;42.292;23.146;2023-06-22T06:30:21;96007.59;;;26.44;70.42
69570;BME280;56781;42.292;23.146;2023-06-22T06:32:49;96015.03;;;26.97;69.66
69570;BME280;56781;42.292;23.146;2023-06-22T06:35:17;96001.34;;;26.58;66.85
69570;BME280;56781;42.292;23.146;2023-06-22T06:37:46;96000.88;;;26.38;67.37
69570;BME280;56781;42.292;23.146;2023-06-22T06:40:14;96006.41;;;26.91;66.69
69570;BME280;56781;42.292;23.146;2023-06-22T06:42:44;95994.66;;;26.80;63.89
69570;BME280;56781;42.292;23.146;2023-06-22T06:45:14;95998.59;;;26.90;63.50
69570;BME280;56781;42.292;23.146;2023-06-22T06:47:42;95983.13;;;27.50;63.52
69570;BME280;56781;42.292;23.146;2023-06-22T06:50:09;96000.88;;;27.31;63.45
69570;BME280;56781;42.292;23.146;2023-06-22T06:52:37;95993.63;;;27.73;62.72
69570;BME280;56781;42.292;23.146;2023-06-22T06:55:05;95996.56;;;28.21;61.55
69570;BME280;56781;42.292;23.146;2023-06-22T06:57:35;95985.44;;;28.36;61.54
69570;BME280;56781;42.292;23.146;2023-06-22T07:00:08;95989.41;;;27.47;62.45
69570;BME280;56781;42.292;23.146;2023-06-22T07:02:40;95995.19;;;27.77;61.61
69570;BME280;56781;42.292;23.146;2023-06-22T07:05:08;95994.31;;;28.02;62.32
69570;BME280;56781;42.292;23.146;2023-06-22T07:07:36;95993.50;;;28.05;60.06
69570;BME280;56781;42.292;23.146;2023-06-22T07:10:05;95980.44;;;28.76;58.80
69570;BME280;56781;42.292;23.146;2023-06-22T07:12:33;95995.34;;;29.57;58.64
69570;BME280;56781;42.292;23.146;2023-06-22T07:15:04;95988.38;;;29.11;56.01
69570;BME280;56781;42.292;23.146;2023-06-22T07:17:35;95995.28;;;29.30;56.26
69570;BME280;56781;42.292;23.146;2023-06-22T07:20:03;95986.50;;;29.05;55.72
69570;BME280;56781;42.292;23.146;2023-06-22T07:22:42;95995.50;;;28.60;59.25
69570;BME280;56781;42.292;23.146;2023-06-22T07:25:09;95983.09;;;29.28;57.72
69570;BME280;56781;42.292;23.146;2023-06-22T07:27:44;95992.63;;;29.88;53.72
69570;BME280;56781;42.292;23.146;2023-06-22T07:30:12;95980.88;;;29.15;57.61
69570;BME280;56781;42.292;23.146;2023-06-22T07:32:39;95973.38;;;28.71;58.44
69570;BME280;56781;42.292;23.146;2023-06-22T07:35:07;95978.31;;;27.68;61.73
69570;BME280;56781;42.292;23.146;2023-06-22T07:37:34;95965.94;;;27.10;63.91
69570;BME280;56781;42.292;23.146;2023-06-22T07:40:02;95977.34;;;26.97;63.96
69570;BME280;56781;42.292;23.146;2023-06-22T07:42:33;95986.78;;;26.89;65.37
69570;BME280;56781;42.292;23.146;2023-06-22T07:45:00;95960.91;;;26.37;67.51
69570;BME280;56781;42.292;23.146;2023-06-22T07:47:27;95957.38;;;26.72;69.64
69570;BME280;56781;42.292;23.146;2023-06-22T07:49:55;95963.28;;;26.63;66.92
69570;BME280;56781;42.292;23.146;2023-06-22T07:52:24;95982.38;;;27.38;64.49
69570;BME280;56781;42.292;23.146;2023-06-22T07:54:52;95973.34;;;27.42;62.99
69570;BME280;56781;42.292;23.146;2023-06-22T07:57:20;95970.50;;;27.63;63.33
69570;BME280;56781;42.292;23.146;2023-06-22T07:59:47;95976.16;;;28.12;61.78
69570;BME280;56781;42.292;23.146;2023-06-22T08:02:14;95958.09;;;28.63;61.03
69570;BME280;56781;42.292;23.146;2023-06-22T08:04:41;95973.94;;;28.93;58.04
69570;BME280;56781;42.292;23.146;2023-06-22T08:07:08;95956.44;;;29.82;56.74
69570;BME280;56781;42.292;23.146;2023-06-22T08:09:36;95971.09;;;30.34;58.18
69570;BME280;56781;42.292;23.146;2023-06-22T08:12:03;95970.63;;;30.89;59.44
69570;BME280;56781;42.292;23.146;2023-06-22T08:14:31;95953.31;;;30.62;55.67
69570;BME280;56781;42.292;23.146;2023-06-22T08:16:58;95954.72;;;30.46;56.01
69570;BME280;56781;42.292;23.146;2023-06-22T08:19:25;95958.94;;;31.02;60.13
69570;BME280;56781;42.292;23.146;2023-06-22T08:21:52;95943.53;;;30.77;57.99
69570;BME280;56781;42.292;23.146;2023-06-22T08:24:19;95942.88;;;30.22;58.21
69570;BME280;56781;42.292;23.146;2023-06-22T08:26:46;95957.25;;;30.61;56.31
69570;BME280;56781;42.292;23.146;2023-06-22T08:29:13;95961.81;;;30.47;57.75
69570;BME280;56781;42.292;23.146;2023-06-22T08:31:41;95942.13;;;30.92;57.62
69570;BME280;56781;42.292;23.146;2023-06-22T08:34:08;95941.28;;;30.96;58.37
69570;BME280;56781;42.292;23.146;2023-06-22T08:36:35;95930.09;;;31.03;58.25
69570;BME280;56781;42.292;23.146;2023-06-22T08:39:08;95922.59;;;31.43;56.50
69570;BME280;56781;42.292;23.146;2023-06-22T08:41:35;95915.25;;;31.13;58.75
69570;BME280;56781;42.292;23.146;2023-06-22T08:44:02;95919.50;;;30.74;56.57
69570;BME280;56781;42.292;23.146;2023-06-22T08:46:30;95922.22;;;30.03;59.50
69570;BME280;56781;42.292;23.146;2023-06-22T08:49:00;95931.50;;;29.55;58.98
69570;BME280;56781;42.292;23.146;2023-06-22T08:51:27;95924.38;;;28.89;63.92
69570;BME280;56781;42.292;23.146;2023-06-22T08:53:55;95928.91;;;28.20;65.01
69570;BME280;56781;42.292;23.146;2023-06-22T08:56:22;95929.00;;;28.06;65.00
69570;BME280;56781;42.292;23.146;2023-06-22T08:58:49;95918.81;;;28.03;70.72
69570;BME280;56781;42.292;23.146;2023-06-22T09:01:16;95925.59;;;27.88;65.61
69570;BME280;56781;42.292;23.146;2023-06-22T09:03:43;95916.13;;;28.48;64.90
69570;BME280;56781;42.292;23.146;2023-06-22T09:06:10;95905.63;;;28.73;64.21
69570;BME280;56781;42.292;23.146;2023-06-22T09:08:37;95905.47;;;28.91;62.86
69570;BME280;56781;42.292;23.146;2023-06-22T09:11:04;95911.44;;;29.24;59.76
69570;BME280;56781;42.292;23.146;2023-06-22T09:13:32;95905.75;;;29.69;58.35
69570;BME280;56781;42.292;23.146;2023-06-22T09:15:59;95915.91;;;29.76;58.67
69570;BME280;56781;42.292;23.146;2023-06-22T09:18:27;95912.09;;;29.66;58.69
69570;BME280;56781;42.292;23.146;2023-06-22T09:20:54;95899.56;;;29.89;52.70
69570;BME280;56781;42.292;23.146;2023-06-22T09:23:21;95897.47;;;30.23;50.43
69570;BME280;56781;42.292;23.146;2023-06-22T09:25:48;95902.94;;;30.27;53.55
69570;BME280;56781;42.292;23.146;2023-06-22T09:28:15;95895.38;;;30.55;50.61
69570;BME280;56781;42.292;23.146;2023-06-22T09:30:45;95914.41;;;29.98;52.88
69570;BME280;56781;42.292;23.146;2023-06-22T09:33:12;95904.03;;;30.33;54.69
69570;BME280;56781;42.292;23.146;2023-06-22T09:35:39;95892.50;;;30.38;51.83
69570;BME280;56781;42.292;23.146;2023-06-22T09:38:06;95897.75;;;30.29;51.19
69570;BME280;56781;42.292;23.146;2023-06-22T09:40:33;95883.91;;;30.33;54.26
69570;BME280;56781;42.292;23.146;2023-06-22T09:43:06;95887.50;;;30.53;54.00
69570;BME280;56781;42.292;23.146;2023-06-22T09:45:34;95885.03;;;30.59;56.77
69570;BME280;56781;42.292;23.146;2023-06-22T09:48:01;95894.53;;;30.58;53.24
69570;BME280;56781;42.292;23.146;2023-06-22T09:50:28;95888.41;;;29.96;52.88
69570;BME280;56781;42.292;23.146;2023-06-22T09:52:55;95896.44;;;30.37;56.48
69570;BME280;56781;42.292;23.146;2023-06-22T09:55:22;95889.66;;;30.65;55.38
69570;BME280;56781;42.292;23.146;2023-06-22T09:57:49;95883.09;;;30.56;51.13
69570;BME280;56781;42.292;23.146;2023-06-22T10:00:17;95876.41;;;30.77;53.50
69570;BME280;56781;42.292;23.146;2023-06-22T10:02:46;95880.59;;;30.41;56.39
69570;BME280;56781;42.292;23.146;2023-06-22T10:05:13;95879.09;;;30.37;55.94
69570;BME280;56781;42.292;23.146;2023-06-22T10:07:40;95887.84;;;30.32;58.40
69570;BME280;56781;42.292;23.146;2023-06-22T10:10:11;95881.25;;;30.49;63.56
69570;BME280;56781;42.292;23.146;2023-06-22T10:12:43;95886.16;;;30.61;59.96
69570;BME280;56781;42.292;23.146;2023-06-22T10:15:11;95879.78;;;30.64;58.96
69570;BME280;56781;42.292;23.146;2023-06-22T10:17:38;95884.47;;;30.24;54.16
69570;BME280;56781;42.292;23.146;2023-06-22T10:20:09;95874.78;;;30.09;50.86
69570;BME280;56781;42.292;23.146;2023-06-22T10:22:44;95865.75;;;30.32;51.21
69570;BME280;56781;42.292;23.146;2023-06-22T10:25:12;95865.97;;;30.64;55.06
69570;BME280;56781;42.292;23.146;2023-06-22T10:27:40;95869.66;;;30.81;52.59
69570;BME280;56781;42.292;23.146;2023-06-22T10:30:08;95884.19;;;30.62;51.54
69570;BME280;56781;42.292;23.146;2023-06-22T10:32:37;95884.63;;;30.84;54.39
69570;BME280;56781;42.292;23.146;2023-06-22T10:35:05;95861.94;;;30.69;55.10
69570;BME280;56781;42.292;23.146;2023-06-22T10:37:32;95851.38;;;30.64;51.49
69570;BME280;56781;42.292;23.146;2023-06-22T10:39:59;95856.66;;;30.78;56.13
69570;BME280;56781;42.292;23.146;2023-06-22T10:42:26;95851.00;;;30.85;57.71
69570;BME280;56781;42.292;23.146;2023-06-22T10:44:53;95833.91;;;30.90;55.78
69570;BME280;56781;42.292;23.146;2023-06-22T10:47:20;95864.97;;;31.18;54.80
69570;BME280;56781;42.292;23.146;2023-06-22T10:49:47;95866.25;;;31.33;56.94
69570;BME280;56781;42.292;23.146;2023-06-22T10:52:14;95847.38;;;31.28;53.23
69570;BME280;56781;42.292;23.146;2023-06-22T10:54:42;95843.56;;;31.22;49.52
69570;BME280;56781;42.292;23.146;2023-06-22T10:57:09;95851.72;;;30.89;52.73
69570;BME280;56781;42.292;23.146;2023-06-22T10:59:36;95841.22;;;31.01;51.42
69570;BME280;56781;42.292;23.146;2023-06-22T11:02:03;95842.97;;;30.71;52.52
69570;BME280;56781;42.292;23.146;2023-06-22T11:04:30;95833.59;;;30.65;56.83
69570;BME280;56781;42.292;23.146;2023-06-22T11:06:57;95846.13;;;30.50;53.13
69570;BME280;56781;42.292;23.146;2023-06-22T11:09:24;95850.22;;;30.41;58.84
69570;BME280;56781;42.292;23.146;2023-06-22T11:11:55;95828.19;;;30.58;61.01
69570;BME280;56781;42.292;23.146;2023-06-22T11:14:23;95850.72;;;30.56;61.43
69570;BME280;56781;42.292;23.146;2023-06-22T11:16:50;95836.28;;;30.48;53.97
69570;BME280;56781;42.292;23.146;2023-06-22T11:19:18;95831.31;;;30.60;58.43
69570;BME280;56781;42.292;23.146;2023-06-22T11:21:45;95844.31;;;30.39;53.04
69570;BME280;56781;42.292;23.146;2023-06-22T11:24:12;95826.16;;;30.62;51.19
69570;BME280;56781;42.292;23.146;2023-06-22T11:26:39;95837.03;;;30.92;56.71
69570;BME280;56781;42.292;23.146;2023-06-22T11:29:06;95828.19;;;31.01;62.67
69570;BME280;56781;42.292;23.146;2023-06-22T11:31:39;95838.03;;;30.82;57.89
69570;BME280;56781;42.292;23.146;2023-06-22T11:34:07;95823.44;;;30.82;57.69
69570;BME280;56781;42.292;23.146;2023-06-22T11:36:34;95821.94;;;30.97;55.54
69570;BME280;56781;42.292;23.146;2023-06-22T11:39:02;95819.03;;;30.84;54.03
69570;BME280;56781;42.292;23.146;2023-06-22T11:41:29;95824.28;;;30.99;57.76
69570;BME280;56781;42.292;23.146;2023-06-22T11:43:56;95815.66;;;31.33;55.17
69570;BME280;56781;42.292;23.146;2023-06-22T11:46:23;95829.81;;;31.35;53.83
69570;BME280;56781;42.292;23.146;2023-06-22T11:48:50;95820.56;;;31.25;55.77
69570;BME280;56781;42.292;23.146;2023-06-22T11:51:17;95820.84;;;31.31;58.12
69570;BME280;56781;42.292;23.146;2023-06-22T11:53:44;95828.44;;;31.07;51.51
69570;BME280;56781;42.292;23.146;2023-06-22T11:56:11;95815.34;;;31.11;51.13
69570;BME280;56781;42.292;23.146;2023-06-22T11:58:38;95810.59;;;31.11;51.74
69570;BME280;56781;42.292;23.146;2023-06-22T12:01:05;95813.59;;;30.81;50.70
69570;BME280;56781;42.292;23.146;2023-06-22T12:03:32;95811.75;;;30.51;56.06
69570;BME280;56781;42.292;23.146;2023-06-22T12:05:59;95804.44;;;30.17;54.97
69570;BME280;56781;42.292;23.146;2023-06-22T12:08:27;95784.75;;;30.15;57.88
69570;BME280;56781;42.292;23.146;2023-06-22T12:10:54;95796.34;;;30.30;64.12
69570;BME280;56781;42.292;23.146;2023-06-22T12:13:21;95793.91;;;30.55;58.50
69570;BME280;56781;42.292;23.146;2023-06-22T12:15:48;95794.63;;;30.59;56.81
69570;BME280;56781;42.292;23.146;2023-06-22T12:18:15;95791.22;;;30.52;53.38
69570;BME280;56781;42.292;23.146;2023-06-22T12:20:42;95794.91;;;30.65;55.63
69570;BME280;56781;42.292;23.146;2023-06-22T12:23:09;95795.22;;;30.90;51.72
69570;BME280;56781;42.292;23.146;2023-06-22T12:25:36;95769.59;;;30.66;48.93
69570;BME280;56781;42.292;23.146;2023-06-22T12:28:04;95778.88;;;30.76;51.65
69570;BME280;56781;42.292;23.146;2023-06-22T12:30:32;95767.66;;;30.87;54.01
69570;BME280;56781;42.292;23.146;2023-06-22T12:33:00;95762.53;;;31.05;53.58
69570;BME280;56781;42.292;23.146;2023-06-22T12:35:27;95765.31;;;31.22;53.80
69570;BME280;56781;42.292;23.146;2023-06-22T12:37:54;95778.88;;;31.16;52.19
69570;BME280;56781;42.292;23.146;2023-06-22T12:40:21;95767.13;;;31.28;53.38
69570;BME280;56781;42.292;23.146;2023-06-22T12:42:48;95775.28;;;31.35;53.88
69570;BME280;56781;42.292;23.146;2023-06-22T12:45:16;95775.25;;;31.55;49.71
69570;BME280;56781;42.292;23.146;2023-06-22T12:47:43;95772.31;;;31.79;50.15
69570;BME280;56781;42.292;23.146;2023-06-22T12:50:10;95758.38;;;31.83;55.50
69570;BME280;56781;42.292;23.146;2023-06-22T12:52:39;95769.13;;;31.97;49.12
69570;BME280;56781;42.292;23.146;2023-06-22T12:55:08;95753.72;;;32.12;50.94